createdAt,value
2018-10-19T00:01:47.166Z,81.40
2018-10-19T00:04:16.358Z,82.50
2018-10-19T00:06:45.601Z,81.60
2018-10-19T00:09:14.923Z,84.50
2018-10-19T00:11:44.105Z,85.40
2018-10-19T00:14:13.276Z,82.83
2018-10-19T00:16:42.428Z,86.73
2018-10-19T00:19:11.635Z,84.00
2018-10-19T00:21:40.839Z,83.60
2018-10-19T00:24:09.989Z,83.80
2018-10-19T00:26:39.217Z,79.10
2018-10-19T00:29:12.028Z,81.83
2018-10-19T00:31:41.139Z,77.73
2018-10-19T00:34:10.629Z,77.73
2018-10-19T00:36:40.054Z,85.00
2018-10-19T00:39:11.031Z,75.37
2018-10-19T00:41:40.215Z,78.10
2018-10-19T00:44:09.427Z,77.57
2018-10-19T00:46:38.733Z,80.47
2018-10-19T00:49:08.194Z,78.77
2018-10-19T00:51:37.944Z,79.90
2018-10-19T00:54:07.204Z,78.43
2018-10-19T00:56:36.529Z,81.57
2018-10-19T00:59:05.769Z,77.67
2018-10-19T01:01:34.954Z,82.17
2018-10-19T01:04:04.173Z,80.30
2018-10-19T01:06:33.347Z,80.50
2018-10-19T01:09:02.891Z,77.10
2018-10-19T01:11:32.029Z,80.73
2018-10-19T01:14:01.316Z,80.70
2018-10-19T01:16:30.555Z,80.63
2018-10-19T01:18:59.740Z,84.50
2018-10-19T01:21:28.968Z,82.97
2018-10-19T01:23:58.177Z,84.10
2018-10-19T01:26:27.930Z,88.33
2018-10-19T01:28:57.169Z,86.73
2018-10-19T01:31:26.320Z,88.10
2018-10-19T01:33:55.901Z,90.10
2018-10-19T01:36:30.643Z,88.70
2018-10-19T01:38:59.944Z,88.67
2018-10-19T01:41:29.067Z,90.90
2018-10-19T01:43:58.253Z,87.30
2018-10-19T01:46:27.453Z,91.00
2018-10-19T01:48:56.622Z,87.83
2018-10-19T01:51:25.859Z,85.60
2018-10-19T01:53:55.035Z,87.40
2018-10-19T01:56:24.177Z,91.93
2018-10-19T01:58:53.392Z,99.07
2018-10-19T02:01:22.982Z,102.17
2018-10-19T02:03:52.366Z,102.63
2018-10-19T02:06:21.579Z,101.57
2018-10-19T02:08:50.726Z,101.73
2018-10-19T02:11:19.905Z,97.90
2018-10-19T02:13:49.081Z,97.83
2018-10-19T02:16:18.241Z,95.20
2018-10-19T02:18:47.392Z,97.80
2018-10-19T02:21:16.557Z,90.07
2018-10-19T02:23:45.705Z,91.20
2018-10-19T02:26:14.867Z,88.13
2018-10-19T02:28:44.076Z,87.80
2018-10-19T02:31:13.249Z,85.37
2018-10-19T02:33:42.397Z,87.53
2018-10-19T02:36:11.581Z,88.13
2018-10-19T02:38:40.809Z,83.03
2018-10-19T02:41:10.091Z,83.50
2018-10-19T02:43:39.269Z,84.47
2018-10-19T02:46:08.443Z,82.83
2018-10-19T02:48:37.687Z,84.83
2018-10-19T02:51:07.127Z,86.10
2018-10-19T02:53:36.446Z,85.70
2018-10-19T02:56:05.691Z,84.20
2018-10-19T02:58:34.919Z,81.97
2018-10-19T03:01:04.058Z,83.37
2018-10-19T03:03:33.334Z,85.17
2018-10-19T03:06:02.599Z,84.77
2018-10-19T03:08:31.771Z,90.00
2018-10-19T03:11:01.063Z,89.80
2018-10-19T03:13:30.372Z,95.07
2018-10-19T03:15:59.891Z,89.57
2018-10-19T03:18:29.077Z,93.10
2018-10-19T03:20:58.369Z,93.50
2018-10-19T03:23:27.445Z,89.17
2018-10-19T03:25:56.711Z,91.67
2018-10-19T03:28:25.907Z,90.10
2018-10-19T03:30:55.120Z,90.70
2018-10-19T03:33:24.327Z,85.80
2018-10-19T03:35:53.556Z,89.23
2018-10-19T03:38:22.719Z,89.27
2018-10-19T03:40:51.878Z,90.40
2018-10-19T03:43:21.060Z,98.50
2018-10-19T03:45:50.362Z,102.57
2018-10-19T03:48:19.539Z,98.90
2018-10-19T03:50:48.745Z,97.53
2018-10-19T03:53:17.986Z,87.10
2018-10-19T03:55:47.060Z,87.07
2018-10-19T03:58:16.258Z,86.97
2018-10-19T04:00:45.431Z,85.13
2018-10-19T04:03:14.709Z,85.90
2018-10-19T04:05:43.862Z,82.00
2018-10-19T04:08:13.215Z,83.40
2018-10-19T04:10:42.530Z,81.03
2018-10-19T04:13:11.924Z,82.97
2018-10-19T04:15:41.073Z,83.37
2018-10-19T04:18:10.250Z,81.47
2018-10-19T04:20:39.422Z,80.80
2018-10-19T04:23:09.720Z,76.87
2018-10-19T04:25:39.752Z,79.63
2018-10-19T04:28:08.881Z,80.93
2018-10-19T04:30:38.425Z,79.17
2018-10-19T04:33:07.800Z,83.67
2018-10-19T04:35:36.964Z,97.67
2018-10-19T04:38:06.127Z,95.07
2018-10-19T04:40:35.277Z,97.40
2018-10-19T04:43:04.946Z,94.87
2018-10-19T04:45:34.166Z,111.33
2018-10-19T04:48:03.908Z,134.60
2018-10-19T04:50:33.157Z,121.90
2018-10-19T04:53:03.072Z,127.13
2018-10-19T04:55:32.186Z,117.47
2018-10-19T04:58:01.396Z,110.07
2018-10-19T05:00:30.577Z,104.10
2018-10-19T05:02:59.757Z,99.70
2018-10-19T05:05:29.057Z,98.80
2018-10-19T05:07:58.076Z,93.77
2018-10-19T05:10:27.244Z,94.30
2018-10-19T05:12:56.466Z,90.43
2018-10-19T05:15:25.565Z,83.50
2018-10-19T05:17:54.705Z,109.27
2018-10-19T05:20:23.901Z,98.97
2018-10-19T05:22:53.145Z,106.20
2018-10-19T05:25:22.309Z,106.37
2018-10-19T05:27:51.484Z,97.10
2018-10-19T05:30:20.663Z,103.67
2018-10-19T05:32:49.871Z,96.90
2018-10-19T05:35:19.040Z,95.97
2018-10-19T05:37:48.310Z,86.20
2018-10-19T05:40:17.491Z,87.30
2018-10-19T05:42:47.097Z,81.73
2018-10-19T05:45:16.310Z,86.17
2018-10-19T05:47:45.505Z,97.60
2018-10-19T05:50:14.699Z,89.47
2018-10-19T05:52:43.827Z,86.00
2018-10-19T05:55:13.041Z,91.57
2018-10-19T05:57:42.227Z,91.37
2018-10-19T06:00:12.332Z,97.03
2018-10-19T06:02:41.612Z,99.70
2018-10-19T06:05:10.846Z,95.63
2018-10-19T06:07:39.998Z,106.97
2018-10-19T06:10:09.669Z,110.60
2018-10-19T06:12:39.887Z,117.27
2018-10-19T06:15:09.766Z,108.87
2018-10-19T06:17:38.941Z,111.03
2018-10-19T06:20:08.281Z,108.80
2018-10-19T06:22:37.384Z,108.43
2018-10-19T06:25:06.764Z,110.07
2018-10-19T06:27:35.926Z,113.23
2018-10-19T06:30:06.005Z,114.47
2018-10-19T06:32:35.167Z,114.13
2018-10-19T06:35:04.481Z,111.00
2018-10-19T06:37:33.703Z,110.30
2018-10-19T06:40:02.892Z,108.90
2018-10-19T06:42:32.077Z,110.33
2018-10-19T06:45:01.286Z,104.53
2018-10-19T06:47:30.446Z,102.07
2018-10-19T06:49:59.697Z,100.87
2018-10-19T06:52:28.798Z,98.47
2018-10-19T06:54:58.011Z,107.50
2018-10-19T06:57:28.423Z,110.80
2018-10-19T06:59:57.602Z,108.63
2018-10-19T07:02:26.765Z,111.50
2018-10-19T07:04:56.248Z,112.90
2018-10-19T07:07:25.366Z,104.93
2018-10-19T07:09:54.551Z,105.77
2018-10-19T07:12:23.785Z,105.43
2018-10-19T07:14:52.968Z,106.87
2018-10-19T07:17:22.147Z,105.77
2018-10-19T07:19:51.462Z,99.60
2018-10-19T07:22:20.626Z,98.00
2018-10-19T07:24:49.795Z,101.60
2018-10-19T07:27:18.990Z,102.20
2018-10-19T07:29:48.252Z,102.33
2018-10-19T07:32:17.419Z,96.57
2018-10-19T07:34:46.831Z,97.70
2018-10-19T07:37:16.201Z,87.70
2018-10-19T07:39:45.379Z,91.20
2018-10-19T07:42:14.627Z,90.10
2018-10-19T07:44:43.870Z,97.63
2018-10-19T07:47:13.142Z,92.30
2018-10-19T07:49:42.298Z,98.03
2018-10-19T07:52:11.532Z,98.90
2018-10-19T07:54:40.677Z,96.93
2018-10-19T07:57:09.923Z,96.30
2018-10-19T07:59:39.107Z,94.50
2018-10-19T08:02:08.377Z,96.03
2018-10-19T08:04:37.490Z,95.30
2018-10-19T08:07:06.914Z,95.80
2018-10-19T08:09:36.091Z,95.30
2018-10-19T08:12:05.349Z,91.40
2018-10-19T08:14:34.525Z,89.60
2018-10-19T08:17:03.808Z,96.83
2018-10-19T08:19:32.990Z,99.47
2018-10-19T08:22:02.150Z,100.67
2018-10-19T08:24:31.316Z,100.93
2018-10-19T08:27:00.499Z,102.77
2018-10-19T08:29:29.682Z,99.27
2018-10-19T08:31:58.873Z,98.83
2018-10-19T08:34:28.029Z,97.60
2018-10-19T08:36:57.215Z,95.63
2018-10-19T08:39:26.390Z,99.87
2018-10-19T08:41:55.599Z,103.40
2018-10-19T08:44:25.657Z,102.63
2018-10-19T08:46:54.844Z,98.67
2018-10-19T08:49:24.010Z,93.80
2018-10-19T08:51:53.263Z,91.73
2018-10-19T08:54:22.437Z,64.00
2018-10-19T08:56:51.707Z,63.17
2018-10-19T08:59:20.861Z,61.60
2018-10-19T09:01:50.015Z,66.30
2018-10-19T09:04:19.213Z,74.10
2018-10-19T09:06:48.446Z,79.07
2018-10-19T09:09:17.586Z,70.00
2018-10-19T09:11:46.842Z,78.23
2018-10-19T09:14:27.285Z,75.20
2018-10-19T09:16:56.488Z,77.10
2018-10-19T09:19:25.656Z,74.47
2018-10-19T09:21:54.965Z,67.70
2018-10-19T09:24:24.187Z,74.90
2018-10-19T09:26:53.355Z,69.13
2018-10-19T09:29:22.510Z,77.77
2018-10-19T09:31:51.712Z,74.30
2018-10-19T09:34:20.877Z,76.63
2018-10-19T09:36:50.177Z,83.57
2018-10-19T09:39:19.236Z,83.50
2018-10-19T09:41:49.182Z,84.30
2018-10-19T09:44:18.370Z,88.33
2018-10-19T09:46:47.659Z,88.80
2018-10-19T09:49:17.774Z,86.07
2018-10-19T09:51:46.927Z,87.27
2018-10-19T09:54:16.125Z,90.80
2018-10-19T09:56:45.321Z,89.70
2018-10-19T09:59:14.496Z,89.83
2018-10-19T10:01:43.693Z,92.90
2018-10-19T10:04:13.774Z,92.03
2018-10-19T10:06:42.955Z,89.20
2018-10-19T10:27:34.691Z,88.03
2018-10-19T10:30:03.921Z,85.27
2018-10-19T10:32:33.044Z,83.00
2018-10-19T10:35:02.246Z,77.87
2018-10-19T10:37:31.366Z,78.47
2018-10-19T10:40:00.540Z,79.60
2018-10-19T10:42:29.668Z,74.63
2018-10-19T10:44:58.807Z,70.00
2018-10-19T10:47:28.105Z,73.78
2018-10-19T10:49:57.582Z,71.03
2018-10-19T10:52:26.744Z,70.23
2018-10-19T10:54:55.944Z,68.30
2018-10-19T10:57:25.041Z,64.82
2018-10-19T10:59:54.205Z,66.77
2018-10-19T11:02:23.338Z,66.37
2018-10-19T11:04:52.499Z,62.67
2018-10-19T11:07:21.785Z,62.03
2018-10-19T11:09:50.818Z,62.73
2018-10-19T11:12:20.034Z,62.10
2018-10-19T11:14:49.180Z,63.55
2018-10-19T11:17:18.698Z,65.75
2018-10-19T11:19:47.890Z,65.37
2018-10-19T11:22:18.489Z,65.90
2018-10-19T11:24:47.613Z,58.57
2018-10-19T11:27:17.002Z,66.00
2018-10-19T11:29:46.169Z,59.27
2018-10-19T11:32:15.269Z,57.10
2018-10-19T11:34:44.425Z,57.70
2018-10-19T11:37:13.600Z,56.50
2018-10-19T11:39:53.810Z,55.17
2018-10-19T11:42:22.906Z,53.47
2018-10-19T11:44:52.033Z,51.70
2018-10-19T11:47:21.179Z,49.93
2018-10-19T11:49:50.317Z,52.20
2018-10-19T11:52:19.406Z,48.93
2018-10-19T11:54:48.567Z,51.30
2018-10-19T11:57:17.674Z,52.23
2018-10-19T11:59:46.816Z,46.47
2018-10-19T12:02:16.077Z,50.63
2018-10-19T12:04:45.195Z,48.50
2018-10-19T12:07:14.375Z,49.20
2018-10-19T12:09:43.443Z,50.58
2018-10-19T12:12:12.546Z,49.57
2018-10-19T12:14:42.339Z,48.70
2018-10-19T12:17:11.682Z,48.33
2018-10-19T12:19:40.754Z,50.57
2018-10-19T12:22:09.885Z,49.93
2018-10-19T12:24:39.018Z,49.30
2018-10-19T12:27:08.544Z,50.57
2018-10-19T12:29:37.574Z,47.43
2018-10-19T12:32:07.350Z,50.77
2018-10-19T12:34:36.440Z,49.73
2018-10-19T12:37:06.199Z,51.80
2018-10-19T12:39:35.417Z,51.90
2018-10-19T12:42:04.591Z,48.03
2018-10-19T12:44:34.002Z,51.33
2018-10-19T12:47:14.331Z,48.33
2018-10-19T12:49:44.178Z,44.50
2018-10-19T12:52:13.306Z,50.73
2018-10-19T12:54:42.467Z,47.87
2018-10-19T12:57:12.608Z,45.30
2018-10-19T12:59:43.289Z,53.67
2018-10-19T13:02:13.176Z,53.23
2018-10-19T13:04:42.375Z,55.10
2018-10-19T13:07:11.512Z,52.60
2018-10-19T13:09:40.616Z,50.40
2018-10-19T13:12:09.714Z,49.40
2018-10-19T13:14:38.854Z,49.80
2018-10-19T13:17:08.870Z,49.97
2018-10-19T13:19:38.905Z,53.57
2018-10-19T13:22:08.105Z,54.33
2018-10-19T13:24:37.289Z,53.27
2018-10-19T13:27:06.530Z,49.40
2018-10-19T13:29:35.643Z,52.40
2018-10-19T13:32:04.791Z,55.10
2018-10-19T13:34:33.882Z,52.07
2018-10-19T13:37:03.085Z,51.70
2018-10-19T13:39:32.182Z,49.03
2018-10-19T13:42:01.354Z,50.73
2018-10-19T13:44:30.691Z,53.50
2018-10-19T13:46:59.836Z,53.83
2018-10-19T13:49:28.934Z,49.13
2018-10-19T13:51:58.070Z,50.93
2018-10-19T13:54:27.346Z,50.07
2018-10-19T13:56:56.477Z,54.13
2018-10-19T13:59:25.655Z,54.97
2018-10-19T14:01:54.885Z,54.13
2018-10-19T14:04:23.970Z,54.83
2018-10-19T14:06:53.074Z,56.67
2018-10-19T14:09:22.175Z,52.78
2018-10-19T14:11:51.269Z,54.60
2018-10-19T14:14:20.449Z,54.60
2018-10-19T14:16:49.547Z,55.80
2018-10-19T14:19:18.695Z,57.13
2018-10-19T14:21:47.792Z,57.07
2018-10-19T14:24:16.889Z,54.80
2018-10-19T14:26:46.630Z,54.83
2018-10-19T14:29:16.576Z,57.63
2018-10-19T14:31:48.105Z,61.10
2018-10-19T14:34:17.409Z,61.87
2018-10-19T14:36:50.562Z,63.60
2018-10-19T14:39:19.676Z,61.80
2018-10-19T14:41:48.808Z,61.77
2018-10-19T14:44:17.923Z,48.70
2018-10-19T14:46:47.077Z,66.03
2018-10-19T14:49:16.190Z,61.98
2018-10-19T14:51:45.290Z,59.23
2018-10-19T14:54:14.403Z,63.80
2018-10-19T14:56:43.559Z,62.37
2018-10-19T14:59:14.005Z,62.80
2018-10-19T15:01:43.208Z,61.70
2018-10-19T15:04:12.812Z,60.33
2018-10-19T15:06:41.910Z,64.60
2018-10-19T15:09:11.748Z,60.97
2018-10-19T15:11:42.022Z,64.60
2018-10-19T15:14:11.250Z,65.73
2018-10-19T15:16:40.769Z,61.53
2018-10-19T15:19:09.971Z,60.50
2018-10-19T15:21:39.141Z,66.33
2018-10-19T15:24:08.418Z,64.77
2018-10-19T15:26:37.498Z,64.83
2018-10-19T15:29:06.973Z,64.80
2018-10-19T15:31:39.469Z,63.03
2018-10-19T15:34:08.706Z,62.20
2018-10-19T15:36:38.063Z,63.97
2018-10-19T15:39:09.541Z,64.07
2018-10-19T15:41:42.807Z,64.90
2018-10-19T15:44:12.192Z,66.80
2018-10-19T15:46:41.594Z,69.70
2018-10-19T15:49:12.157Z,69.83
2018-10-19T15:51:43.433Z,67.40
2018-10-19T15:54:12.659Z,67.30
2018-10-19T15:56:41.814Z,68.53
2018-10-19T15:59:10.967Z,67.77
2018-10-19T16:01:40.107Z,70.07
2018-10-19T16:04:09.249Z,70.80
2018-10-19T16:06:38.429Z,68.13
2018-10-19T16:09:10.882Z,72.17
2018-10-19T16:11:40.557Z,70.77
2018-10-19T16:14:09.697Z,71.70
2018-10-19T16:16:38.917Z,72.00
2018-10-19T16:19:08.562Z,72.37
2018-10-19T16:21:37.743Z,72.30
2018-10-19T16:24:07.410Z,77.37
2018-10-19T16:26:36.805Z,77.87
2018-10-19T16:29:06.075Z,81.20
2018-10-19T16:31:35.219Z,80.83
2018-10-19T16:34:04.447Z,77.00
2018-10-19T16:36:33.598Z,77.80
2018-10-19T16:39:02.811Z,78.27
2018-10-19T16:41:31.953Z,78.07
2018-10-19T16:44:01.106Z,79.67
2018-10-19T16:46:30.319Z,78.97
2018-10-19T16:48:59.489Z,77.80
2018-10-19T16:51:28.656Z,81.07
2018-10-19T16:53:57.828Z,80.20
2018-10-19T16:56:27.025Z,80.80
2018-10-19T16:58:56.195Z,75.80
2018-10-19T17:01:25.827Z,78.37
2018-10-19T17:03:55.116Z,87.20
2018-10-19T17:06:24.222Z,87.50
2018-10-19T17:08:53.377Z,80.23
2018-10-19T17:11:22.507Z,84.97
2018-10-19T17:13:51.705Z,83.97
2018-10-19T17:16:20.881Z,83.20
2018-10-19T17:18:50.089Z,101.80
2018-10-19T17:21:19.251Z,120.10
2018-10-19T17:23:48.457Z,128.83
2018-10-19T17:26:17.603Z,98.80
2018-10-19T17:28:46.757Z,103.10
2018-10-19T17:31:16.002Z,115.60
2018-10-19T17:33:45.241Z,125.80
2018-10-19T17:36:14.353Z,101.27
2018-10-19T17:38:43.485Z,94.03
2018-10-19T17:41:12.696Z,95.43
2018-10-19T17:43:41.870Z,83.60
2018-10-19T17:46:11.046Z,92.07
2018-10-19T17:48:40.253Z,84.80
2018-10-19T17:51:09.638Z,93.17
2018-10-19T17:53:38.920Z,87.03
2018-10-19T17:56:08.168Z,90.00
2018-10-19T17:58:37.328Z,85.30
2018-10-19T18:01:06.701Z,88.70
2018-10-19T18:03:35.907Z,87.20
2018-10-19T18:06:05.483Z,90.70
2018-10-19T18:08:34.684Z,96.07
2018-10-19T18:11:03.922Z,92.73
2018-10-19T18:13:33.269Z,93.40
2018-10-19T18:16:02.464Z,99.70
2018-10-19T18:18:31.599Z,126.30
2018-10-19T18:21:00.921Z,99.40
2018-10-19T18:23:31.027Z,97.30
2018-10-19T18:26:00.295Z,89.97
2018-10-19T18:28:29.585Z,90.77
2018-10-19T18:30:58.809Z,97.23
2018-10-19T18:33:28.075Z,88.80
2018-10-19T18:35:57.267Z,84.57
2018-10-19T18:38:26.593Z,82.67
2018-10-19T18:40:55.836Z,114.57
2018-10-19T18:43:25.147Z,85.10
2018-10-19T18:45:54.453Z,100.60
2018-10-19T18:48:23.660Z,97.10
2018-10-19T18:50:52.970Z,92.17
2018-10-19T18:53:23.080Z,88.50
2018-10-19T18:55:52.648Z,84.67
2018-10-19T18:58:21.825Z,91.10
2018-10-19T19:00:51.118Z,86.13
2018-10-19T19:03:20.326Z,87.77
2018-10-19T19:05:49.616Z,88.77
2018-10-19T19:08:18.879Z,97.40
2018-10-19T19:10:48.181Z,97.13
2018-10-19T19:13:27.905Z,102.10
2018-10-19T19:15:57.442Z,92.90
2018-10-19T19:18:27.670Z,98.50
2018-10-19T19:20:57.144Z,95.23
2018-10-19T19:23:26.375Z,95.33
2018-10-19T19:26:01.072Z,95.07
2018-10-19T19:28:30.308Z,93.60
2018-10-19T19:30:59.585Z,95.43
2018-10-19T19:33:34.226Z,95.07
2018-10-19T19:36:05.396Z,100.10
2018-10-19T19:38:34.640Z,99.47
2018-10-19T19:41:09.070Z,99.97
2018-10-19T19:43:38.239Z,100.93
2018-10-19T19:46:07.398Z,103.00
2018-10-19T19:48:42.118Z,102.10
2018-10-19T19:51:11.827Z,101.20
2018-10-19T19:53:41.028Z,103.73
2018-10-19T19:56:10.461Z,103.87
2018-10-19T19:58:41.296Z,114.83
2018-10-19T20:01:11.409Z,103.77
2018-10-19T20:03:40.695Z,99.53
2018-10-19T20:06:09.973Z,102.40
2018-10-19T20:08:39.940Z,104.50
2018-10-19T20:11:10.506Z,104.60
2018-10-19T20:13:39.644Z,107.03
2018-10-19T20:16:09.920Z,105.47
2018-10-19T20:18:39.172Z,107.80
2018-10-19T20:21:09.003Z,111.07
2018-10-19T20:23:38.232Z,110.30
2018-10-19T20:26:07.508Z,110.60
2018-10-19T20:28:36.692Z,104.83
2018-10-19T20:31:06.068Z,112.13
2018-10-19T20:33:35.681Z,105.80
2018-10-19T20:36:05.027Z,104.10
2018-10-19T20:38:34.186Z,105.13
2018-10-19T20:41:03.570Z,104.97
2018-10-19T20:43:32.748Z,104.43
2018-10-19T20:46:01.940Z,110.97
2018-10-19T20:48:31.082Z,106.97
2018-10-19T20:51:00.630Z,104.77
2018-10-19T20:53:29.801Z,102.50
2018-10-19T20:55:58.965Z,104.73
2018-10-19T20:58:28.139Z,107.70
2018-10-19T21:00:57.332Z,107.10
2018-10-19T21:03:26.514Z,104.73
2018-10-19T21:05:55.836Z,103.10
2018-10-19T21:08:26.920Z,108.10
2018-10-19T21:10:56.147Z,106.57
2018-10-19T21:13:25.336Z,108.93
2018-10-19T21:15:56.220Z,107.87
2018-10-19T21:18:25.476Z,101.10
2018-10-19T21:20:59.458Z,105.33
2018-10-19T21:23:28.748Z,100.37
2018-10-19T21:25:57.919Z,100.13
2018-10-19T21:28:27.995Z,98.00
2018-10-19T21:30:57.149Z,97.77
2018-10-19T21:33:26.354Z,113.40
2018-10-19T21:35:55.514Z,100.50
2018-10-19T21:38:24.684Z,96.37
2018-10-19T21:40:53.921Z,97.03
2018-10-19T21:43:23.060Z,93.50
2018-10-19T21:45:52.266Z,95.07
2018-10-19T21:48:21.406Z,97.67
2018-10-19T21:50:50.587Z,101.30
2018-10-19T21:53:19.755Z,98.47
2018-10-19T21:55:48.929Z,97.80
2018-10-19T21:58:18.105Z,100.27
2018-10-19T22:00:47.282Z,100.67
2018-10-19T22:03:16.438Z,95.50
2018-10-19T22:05:45.610Z,95.13
2018-10-19T22:08:16.153Z,99.60
2018-10-19T22:10:47.075Z,100.90
2018-10-19T22:13:16.290Z,99.73
2018-10-19T22:15:45.388Z,101.17
2018-10-19T22:18:14.589Z,100.20
2018-10-19T22:20:43.770Z,97.93
2018-10-19T22:23:13.012Z,104.87
2018-10-19T22:25:42.572Z,104.10
2018-10-19T22:28:11.768Z,104.93
2018-10-19T22:30:40.967Z,116.27
2018-10-19T22:33:44.628Z,110.97
2018-10-19T22:36:27.695Z,112.80
2018-10-19T22:39:09.431Z,121.10
2018-10-19T22:41:39.105Z,114.67
2018-10-19T22:44:08.291Z,117.93
2018-10-19T22:46:39.756Z,111.67
2018-10-19T22:49:09.224Z,108.07
2018-10-19T22:51:42.283Z,108.03
2018-10-19T22:54:11.434Z,102.00
2018-10-19T22:56:40.650Z,98.47
2018-10-19T22:59:09.847Z,98.97
2018-10-19T23:01:38.975Z,100.47
2018-10-19T23:04:08.323Z,99.47
2018-10-19T23:06:37.502Z,95.70
2018-10-19T23:09:08.498Z,102.60
2018-10-19T23:11:37.860Z,99.40
2018-10-19T23:14:07.523Z,96.87
2018-10-19T23:16:36.678Z,96.37
2018-10-19T23:19:06.139Z,98.80
2018-10-19T23:21:35.441Z,94.07
2018-10-19T23:24:05.395Z,97.67
2018-10-19T23:26:34.610Z,92.90
2018-10-19T23:29:04.308Z,93.77
2018-10-19T23:31:33.585Z,86.60
2018-10-19T23:34:02.844Z,88.70
2018-10-19T23:36:32.061Z,91.23
2018-10-19T23:39:01.248Z,92.37
2018-10-19T23:41:30.410Z,91.40
2018-10-19T23:43:59.590Z,92.70
2018-10-19T23:46:28.771Z,93.60
2018-10-19T23:48:57.998Z,94.87
2018-10-19T23:51:27.185Z,99.43
2018-10-19T23:53:56.366Z,100.77
2018-10-19T23:56:25.546Z,99.67
2018-10-19T23:58:54.744Z,97.00
